Time;durP1;ratioP1;P1;durP2;ratioP2;P2;SDS_P1;SDS_P2;PMS_P1;PMS_P2;Temp;Humidity;BMP_temperature;BMP_pressure;BME280_temperature;BME280_humidity;BME280_pressure;Samples;Min_cycle;Max_cycle;Signal;HPM_P1;HPM_P2
2023/08/05 00:00:44;;;;;;;6.05;2.45;;;;;;;27.31;50.12;98737.91;4491722;32;34088;-65
2023/08/05 00:03:12;;;;;;;5.25;2.50;;;;;;;27.27;50.32;98729.41;4494705;31;33985;-65
2023/08/05 00:05:39;;;;;;;4.95;2.20;;;;;;;27.20;50.40;98759.03;4480447;32;33975;-62
2023/08/05 00:08:07;;;;;;;6.50;2.37;;;;;;;27.16;50.52;98791.59;4479706;32;33672;-64
2023/08/05 00:10:35;;;;;;;4.87;2.42;;;;;;;27.12;50.46;98801.47;4477996;32;33101;-66
2023/08/05 00:13:02;;;;;;;4.40;2.33;;;;;;;27.11;50.37;98779.84;4479769;32;33401;-64
2023/08/05 00:15:30;;;;;;;4.62;2.25;;;;;;;27.10;50.41;98742.63;4465464;32;33181;-65
2023/08/05 00:17:57;;;;;;;4.87;2.72;;;;;;;27.08;50.45;98726.44;4465137;32;33031;-66
2023/08/05 00:20:25;;;;;;;4.70;2.50;;;;;;;27.09;50.38;98699.88;4479489;32;34154;-66
2023/08/05 00:22:53;;;;;;;6.07;2.40;;;;;;;27.07;50.46;98702.88;4478359;32;34068;-64
2023/08/05 00:25:20;;;;;;;5.62;2.45;;;;;;;27.06;50.53;98701.25;4482764;32;33851;-65
2023/08/05 00:27:48;;;;;;;6.50;2.62;;;;;;;27.05;50.55;98726.16;4480049;32;34436;-63
2023/08/05 00:30:15;;;;;;;4.50;1.95;;;;;;;27.04;50.67;98733.53;4478782;32;33369;-65
2023/08/05 00:32:44;;;;;;;4.03;1.73;;;;;;;27.03;50.62;98722.88;4478511;32;33629;-66
2023/08/05 00:35:12;;;;;;;3.30;1.90;;;;;;;27.03;50.47;98709.19;4478394;32;33990;-65
2023/08/05 00:37:41;;;;;;;3.40;1.77;;;;;;;27.02;50.62;98718.50;4470485;32;33831;-66
2023/08/05 00:40:09;;;;;;;5.68;2.00;;;;;;;27.03;50.50;98690.84;4464106;32;34275;-65
2023/08/05 00:42:37;;;;;;;4.28;1.75;;;;;;;27.01;50.54;98657.44;4462760;32;34524;-65
2023/08/05 00:45:05;;;;;;;3.50;1.80;;;;;;;27.01;50.45;98660.19;4464133;32;34038;-65
2023/08/05 00:47:33;;;;;;;5.28;1.60;;;;;;;27.03;50.41;98698.22;4461386;32;33840;-64
2023/08/05 00:50:00;;;;;;;4.80;2.05;;;;;;;27.03;50.40;98674.41;4427009;32;32722;-63
2023/08/05 00:52:28;;;;;;;4.55;1.62;;;;;;;27.04;50.44;98579.41;4439566;32;33971;-65
2023/08/05 00:54:55;;;;;;;2.70;1.60;;;;;;;27.04;50.29;98513.69;4439640;32;33452;-61
2023/08/05 00:57:23;;;;;;;3.05;1.42;;;;;;;27.04;50.26;98484.41;4453620;32;33271;-65
2023/08/05 00:59:50;;;;;;;3.42;1.50;;;;;;;27.03;50.26;98477.28;4439380;32;34105;-63
2023/08/05 01:02:18;;;;;;;5.47;1.83;;;;;;;27.04;50.37;98528.19;4452180;32;32723;-64
2023/08/05 01:04:46;;;;;;;3.20;1.52;;;;;;;27.02;50.42;98592.56;4439682;32;33550;-64
2023/08/05 01:07:14;;;;;;;7.55;1.90;;;;;;;27.05;50.35;98622.94;4439526;32;33645;-64
2023/08/05 01:09:42;;;;;;;3.85;1.80;;;;;;;27.08;50.30;98616.09;4452350;32;34343;-64
2023/08/05 01:12:09;;;;;;;3.80;1.50;;;;;;;27.18;49.93;98594.97;4452265;32;33924;-65
2023/08/05 01:14:37;;;;;;;5.53;1.90;;;;;;;27.27;49.69;98558.81;4453300;32;34818;-64
2023/08/05 01:17:07;;;;;;;7.37;1.95;;;;;;;27.33;49.51;98557.69;4452077;32;32579;-62
2023/08/05 01:19:34;;;;;;;3.83;1.83;;;;;;;27.35;49.47;98552.72;4453493;32;33410;-61
2023/08/05 01:22:18;;;;;;;6.45;1.92;;;;;;;27.38;49.76;98566.69;4451982;32;34531;-65
2023/08/05 01:25:05;;;;;;;3.08;1.80;;;;;;;27.41;50.08;98560.63;4439434;32;34587;-65
2023/08/05 01:27:34;;;;;;;3.42;1.80;;;;;;;27.45;49.86;98569.09;4440881;32;33705;-64
2023/08/05 01:30:03;;;;;;;5.87;1.80;;;;;;;27.45;50.08;98563.62;4439781;32;33335;-63
2023/08/05 01:32:31;;;;;;;3.12;1.92;;;;;;;27.46;49.99;98574.28;4453243;32;33850;-65
2023/08/05 01:34:58;;;;;;;4.95;2.40;;;;;;;27.49;50.00;98662.50;4439383;32;33295;-63
2023/08/05 01:37:26;;;;;;;6.12;2.40;;;;;;;27.51;50.33;98654.81;4439168;32;33439;-65
2023/08/05 01:39:54;;;;;;;6.20;2.33;;;;;;;27.50;49.83;98588.25;4451863;32;32189;-63
2023/08/05 01:42:22;;;;;;;7.03;2.87;;;;;;;27.50;49.90;98566.34;4453535;32;34620;-62
2023/08/05 01:44:50;;;;;;;5.97;2.50;;;;;;;27.50;49.88;98592.91;4453321;32;33708;-64
2023/08/05 01:47:17;;;;;;;4.37;2.72;;;;;;;27.49;49.69;98592.09;4453196;32;33752;-63
2023/08/05 01:49:45;;;;;;;4.62;2.50;;;;;;;27.49;49.86;98583.87;4453251;32;34150;-65
2023/08/05 01:52:13;;;;;;;6.37;2.58;;;;;;;27.49;49.80;98572.91;4453187;32;33533;-63
2023/08/05 01:54:40;;;;;;;4.93;2.62;;;;;;;27.49;49.71;98541.97;4453041;32;33706;-65
2023/08/05 01:57:08;;;;;;;5.90;2.65;;;;;;;27.50;49.84;98513.47;4439196;32;34136;-66
2023/08/05 01:59:35;;;;;;;6.05;2.58;;;;;;;27.48;49.83;98527.47;4452480;32;33632;-65
2023/08/05 02:02:03;;;;;;;5.65;3.15;;;;;;;27.48;49.73;98508.28;4452955;32;34547;-65
2023/08/05 02:04:31;;;;;;;4.25;2.67;;;;;;;27.49;49.89;98512.66;4451917;32;34240;-64
2023/08/05 02:06:59;;;;;;;5.07;2.87;;;;;;;27.50;50.01;98524.44;4453380;32;34413;-64
2023/08/05 02:09:26;;;;;;;5.45;2.90;;;;;;;27.51;50.01;98517.84;4453274;32;33729;-62
2023/08/05 02:11:54;;;;;;;6.07;3.10;;;;;;;27.51;49.75;98490.44;4451853;32;33792;-64
2023/08/05 02:14:21;;;;;;;6.07;2.65;;;;;;;27.51;49.57;98458.38;4453375;32;33577;-64
2023/08/05 02:16:49;;;;;;;5.90;3.12;;;;;;;27.51;49.58;98463.03;4452873;32;34493;-62
2023/08/05 02:19:18;;;;;;;4.37;2.90;;;;;;;27.51;49.57;98471.25;4453308;32;33041;-62
2023/08/05 02:21:45;;;;;;;6.03;2.78;;;;;;;27.51;49.49;98463.03;4453067;32;33997;-65
2023/08/05 02:24:13;;;;;;;4.28;2.58;;;;;;;27.51;49.47;98461.13;4452882;32;34645;-65
2023/08/05 02:26:41;;;;;;;7.87;2.97;;;;;;;27.51;49.54;98463.84;4453000;32;33799;-63
2023/08/05 02:29:10;;;;;;;5.45;2.85;;;;;;;27.52;49.50;98467.44;4451785;32;33312;-63
2023/08/05 02:31:40;;;;;;;4.32;2.62;;;;;;;27.52;49.48;98465.53;4452955;32;34070;-62
2023/08/05 02:34:08;;;;;;;5.90;3.20;;;;;;;27.52;49.54;98471.00;4452977;32;33533;-64
2023/08/05 02:36:35;;;;;;;5.97;3.17;;;;;;;27.52;49.63;98465.53;4452885;32;33625;-62
2023/08/05 02:39:03;;;;;;;3.85;2.75;;;;;;;27.54;49.60;98449.59;4452973;32;33387;-60
2023/08/05 02:41:30;;;;;;;4.55;2.85;;;;;;;27.53;49.47;98456.19;4452896;32;34640;-61
2023/08/05 02:43:58;;;;;;;5.35;2.80;;;;;;;27.53;49.58;98471.81;4452821;32;33920;-63
2023/08/05 02:46:26;;;;;;;5.75;2.87;;;;;;;27.53;49.55;98489.06;4452919;32;34679;-63
2023/08/05 02:48:53;;;;;;;4.65;2.92;;;;;;;27.54;49.62;98487.97;4452708;32;33296;-64
2023/08/05 02:51:21;;;;;;;6.03;3.42;;;;;;;27.54;49.54;98489.88;4451384;32;34065;-65
2023/08/05 02:53:48;;;;;;;4.45;3.03;;;;;;;27.54;49.59;98473.44;4452796;32;34818;-63
2023/08/05 02:56:16;;;;;;;4.62;3.00;;;;;;;27.53;49.69;98480.84;4452705;32;34332;-63
2023/08/05 02:58:44;;;;;;;5.60;3.35;;;;;;;27.53;49.64;98527.41;4452001;32;33397;-59
2023/08/05 03:01:12;;;;;;;7.18;3.40;;;;;;;27.53;49.71;98564.97;4437343;32;33848;-63
2023/08/05 03:03:40;;;;;;;6.20;3.25;;;;;;;27.54;49.85;98613.19;4435969;32;34688;-64
2023/08/05 03:06:07;;;;;;;5.20;3.58;;;;;;;27.53;50.02;98630.72;4437137;32;33312;-64
2023/08/05 03:08:35;;;;;;;5.45;3.62;;;;;;;27.53;50.10;98600.59;4437487;32;33003;-64
2023/08/05 03:11:04;;;;;;;5.78;3.67;;;;;;;27.53;49.99;98570.44;4436859;32;33334;-64
2023/08/05 03:13:31;;;;;;;7.28;3.30;;;;;;;27.52;50.19;98546.91;4448708;32;33963;-64
2023/08/05 03:16:09;;;;;;;7.95;3.37;;;;;;;27.51;50.04;98531.53;4437066;32;33877;-63
2023/08/05 03:18:37;;;;;;;7.62;3.70;;;;;;;27.50;50.05;98546.34;4436174;32;33623;-64
2023/08/05 03:21:06;;;;;;;6.87;3.50;;;;;;;27.51;50.25;98553.44;4437204;32;34946;-63
2023/08/05 03:23:34;;;;;;;6.15;3.45;;;;;;;27.51;50.08;98550.72;4423557;32;33515;-62
2023/08/05 03:26:03;;;;;;;6.47;3.50;;;;;;;27.51;49.99;98603.59;4435766;32;33620;-63
2023/08/05 03:28:30;;;;;;;5.00;3.20;;;;;;;27.50;50.11;98654.00;4437079;32;34356;-64
2023/08/05 03:30:59;;;;;;;9.20;3.65;;;;;;;27.51;50.05;98668.53;4423439;32;34567;-64
2023/08/05 03:33:27;;;;;;;4.93;3.30;;;;;;;27.50;50.04;98669.63;4437014;32;33567;-63
2023/08/05 03:35:56;;;;;;;6.45;3.30;;;;;;;27.50;50.06;98651.25;4410781;32;32788;-64
2023/08/05 03:38:23;;;;;;;7.28;3.22;;;;;;;27.49;50.19;98586.62;4436666;32;34063;-62
2023/08/05 03:40:51;;;;;;;7.30;3.10;;;;;;;27.47;50.35;98550.50;4436713;32;34652;-62
2023/08/05 03:43:19;;;;;;;5.97;3.55;;;;;;;27.47;50.40;98531.31;4436829;32;33579;-63
2023/08/05 03:45:51;;;;;;;5.15;3.10;;;;;;;27.44;50.39;98529.94;4436711;32;34324;-64
2023/08/05 03:48:19;;;;;;;4.90;3.45;;;;;;;27.43;50.36;98541.19;4435231;32;33318;-64
2023/08/05 03:50:46;;;;;;;7.72;3.67;;;;;;;27.43;50.29;98535.72;4436928;32;33918;-62
2023/08/05 03:53:14;;;;;;;6.78;3.45;;;;;;;27.42;50.20;98542.31;4436932;32;33547;-64
2023/08/05 03:55:42;;;;;;;6.97;3.05;;;;;;;27.43;50.18;98546.66;4422463;32;32939;-64
2023/08/05 03:58:11;;;;;;;6.57;3.37;;;;;;;27.44;50.06;98545.56;4448222;32;34046;-62
2023/08/05 04:00:43;;;;;;;5.82;3.03;;;;;;;27.45;49.99;98541.72;4448335;32;33916;-62
2023/08/05 04:03:11;;;;;;;5.70;3.20;;;;;;;27.44;49.93;98535.41;4450672;32;33497;-63
2023/08/05 04:05:40;;;;;;;5.78;3.50;;;;;;;27.44;49.93;98526.38;4451960;32;34180;-64
2023/08/05 04:08:07;;;;;;;6.43;3.42;;;;;;;27.44;50.00;98521.72;4450625;32;32324;-64
2023/08/05 04:10:38;;;;;;;5.32;3.25;;;;;;;27.44;50.08;98535.41;4450578;32;34853;-64
2023/08/05 04:13:06;;;;;;;5.15;3.37;;;;;;;27.45;50.28;98531.56;4451801;32;34068;-61
2023/08/05 04:15:35;;;;;;;8.48;3.70;;;;;;;27.45;50.04;98536.22;4450219;32;32814;-64
2023/08/05 04:18:04;;;;;;;6.37;3.37;;;;;;;27.46;50.01;98546.09;4450499;32;33735;-60
2023/08/05 04:20:34;;;;;;;4.85;3.03;;;;;;;27.46;50.04;98552.37;4450716;32;34762;-64
2023/08/05 04:23:05;;;;;;;5.80;3.40;;;;;;;27.48;50.20;98556.78;4450711;32;33542;-60
2023/08/05 04:25:34;;;;;;;6.45;3.25;;;;;;;27.48;50.42;98567.75;4453597;32;33391;-62
2023/08/05 04:28:01;;;;;;;5.30;3.08;;;;;;;27.48;50.36;98562.25;4452504;32;33230;-65
2023/08/05 04:30:29;;;;;;;5.70;3.58;;;;;;;27.49;50.07;98564.72;4452441;32;34270;-64
2023/08/05 04:32:57;;;;;;;5.93;3.20;;;;;;;27.49;49.96;98567.44;4453776;32;34012;-63
2023/08/05 04:35:24;;;;;;;5.35;3.20;;;;;;;27.48;49.92;98563.06;4453808;32;33385;-63
2023/08/05 04:37:52;;;;;;;6.20;3.35;;;;;;;27.49;49.87;98578.41;4453405;32;33336;-64
2023/08/05 04:40:20;;;;;;;8.00;3.08;;;;;;;27.49;49.95;98575.66;4439712;32;33874;-64
2023/08/05 04:42:47;;;;;;;5.20;3.22;;;;;;;27.49;49.93;98574.84;4453713;32;33480;-63
2023/08/05 04:45:15;;;;;;;5.12;3.03;;;;;;;27.49;49.97;98569.38;4453612;32;33781;-62
2023/08/05 04:47:42;;;;;;;4.72;3.10;;;;;;;27.50;49.96;98560.03;4452413;32;33419;-64
2023/08/05 04:50:10;;;;;;;5.30;3.17;;;;;;;27.50;50.03;98544.41;4453715;32;33582;-64
2023/08/05 04:52:39;;;;;;;4.57;3.05;;;;;;;27.48;50.08;98532.94;4453516;32;33950;-62
2023/08/05 04:55:09;;;;;;;5.25;2.97;;;;;;;27.49;50.00;98525.53;4452249;32;32589;-62
2023/08/05 04:57:36;;;;;;;4.93;3.10;;;;;;;27.48;50.07;98513.75;4439699;32;32470;-63
2023/08/05 05:00:04;;;;;;;4.72;3.10;;;;;;;27.47;50.10;98512.13;4436713;32;34413;-63
2023/08/05 05:02:32;;;;;;;5.75;2.80;;;;;;;27.46;50.04;98511.28;4438084;32;33880;-64
2023/08/05 05:05:00;;;;;;;4.80;2.70;;;;;;;27.47;50.21;98517.63;4449594;32;34447;-63
2023/08/05 05:07:28;;;;;;;7.65;3.30;;;;;;;27.47;50.23;98520.34;4436842;32;33335;-63
2023/08/05 05:09:56;;;;;;;3.83;2.40;;;;;;;27.48;50.14;98523.91;4449548;32;34626;-63
2023/08/05 05:12:23;;;;;;;4.25;2.47;;;;;;;27.48;50.22;98527.47;4438056;32;33874;-60
2023/08/05 05:14:51;;;;;;;6.87;2.70;;;;;;;27.48;50.13;98532.13;4449437;32;33228;-64
2023/08/05 05:17:19;;;;;;;5.62;3.10;;;;;;;27.48;50.22;98519.25;4438109;32;33330;-60
2023/08/05 05:19:47;;;;;;;6.95;2.95;;;;;;;27.49;50.28;98514.56;4436532;32;34100;-60
2023/08/05 05:22:18;;;;;;;5.15;2.62;;;;;;;27.49;50.39;98511.84;4411360;32;33137;-60
2023/08/05 05:24:45;;;;;;;4.47;2.75;;;;;;;27.48;50.45;98502.81;4449449;32;34527;-62
2023/08/05 05:27:31;;;;;;;5.12;2.85;;;;;;;27.49;50.31;98498.94;4426114;32;34208;-64
2023/08/05 05:29:59;;;;;;;4.40;2.75;;;;;;;27.48;50.33;98497.31;4437866;32;35095;-63
2023/08/05 05:32:27;;;;;;;5.78;3.10;;;;;;;27.50;50.31;98502.50;4436345;32;33228;-62
2023/08/05 05:34:54;;;;;;;4.70;2.95;;;;;;;27.49;50.54;98503.62;4437768;32;33314;-63
2023/08/05 05:37:22;;;;;;;5.43;3.05;;;;;;;27.48;50.76;98491.84;4423972;32;33287;-64
2023/08/05 05:39:49;;;;;;;5.25;3.05;;;;;;;27.49;50.73;98492.66;4437555;32;33953;-62
2023/08/05 05:42:17;;;;;;;4.75;3.05;;;;;;;27.50;50.70;98503.31;4437845;32;33920;-64
2023/08/05 05:44:50;;;;;;;5.22;3.17;;;;;;;27.50;50.68;98494.28;4436567;32;34571;-61
2023/08/05 05:47:21;;;;;;;5.93;3.12;;;;;;;27.50;50.81;98486.06;4448825;32;33451;-63
2023/08/05 05:49:48;;;;;;;5.10;2.95;;;;;;;27.50;50.80;98489.63;4436536;32;33056;-64
2023/08/05 05:52:16;;;;;;;5.50;3.22;;;;;;;27.51;50.77;98498.66;4436552;32;33882;-64
2023/08/05 05:54:44;;;;;;;5.60;3.45;;;;;;;27.51;50.76;98510.44;4449063;32;34487;-64
2023/08/05 05:57:12;;;;;;;5.37;3.33;;;;;;;27.52;50.68;98500.31;4437766;32;33461;-63
2023/08/05 05:59:39;;;;;;;5.75;3.17;;;;;;;27.52;50.81;98498.41;4444683;32;33628;-63
2023/08/05 06:02:07;;;;;;;6.55;3.75;;;;;;;27.52;50.80;98498.41;4459384;32;33241;-60
2023/08/05 06:04:36;;;;;;;4.40;3.30;;;;;;;27.51;50.88;98501.41;4459268;32;33663;-63
2023/08/05 06:07:04;;;;;;;5.68;3.25;;;;;;;27.52;51.06;98503.88;4460499;32;34069;-62
2023/08/05 06:09:31;;;;;;;4.93;2.97;;;;;;;27.52;51.04;98506.63;4455765;32;33540;-64
2023/08/05 06:11:59;;;;;;;5.10;3.60;;;;;;;27.52;50.89;98498.41;4451908;32;33904;-61
2023/08/05 06:14:28;;;;;;;6.32;3.85;;;;;;;27.53;51.16;98499.22;4439116;32;32897;-65
2023/08/05 06:16:56;;;;;;;5.10;3.30;;;;;;;27.53;51.19;98510.16;4452191;32;33433;-64
2023/08/05 06:19:24;;;;;;;4.68;3.00;;;;;;;27.54;51.17;98504.41;4452962;32;34041;-63
2023/08/05 06:21:52;;;;;;;5.68;3.72;;;;;;;27.54;51.31;98514.53;4452926;32;33905;-63
2023/08/05 06:24:20;;;;;;;7.68;3.50;;;;;;;27.55;51.55;98511.50;4453091;32;33902;-63
2023/08/05 06:26:48;;;;;;;5.72;3.55;;;;;;;27.56;51.87;98515.06;4452593;32;33476;-62
2023/08/05 06:29:17;;;;;;;9.27;3.75;;;;;;;27.56;51.89;98518.66;4453236;32;33474;-61
2023/08/05 06:31:44;;;;;;;6.95;3.70;;;;;;;27.57;51.98;98517.53;4438912;32;33187;-64
2023/08/05 06:34:12;;;;;;;5.05;3.47;;;;;;;27.58;52.02;98510.94;4451693;32;33431;-66
2023/08/05 06:36:40;;;;;;;7.15;4.25;;;;;;;27.59;52.13;98509.03;4451479;32;34192;-60
2023/08/05 06:39:07;;;;;;;6.37;3.90;;;;;;;27.59;52.72;98507.09;4451584;32;34559;-62
2023/08/05 06:41:35;;;;;;;9.52;3.78;;;;;;;27.60;52.84;98505.97;4451661;32;34707;-63
2023/08/05 06:44:03;;;;;;;6.32;4.53;;;;;;;27.60;53.16;98505.97;4452774;32;33408;-64
2023/08/05 06:46:30;;;;;;;6.62;4.75;;;;;;;27.60;53.38;98503.25;4450969;32;32955;-64
2023/08/05 06:48:58;;;;;;;5.87;4.05;;;;;;;27.61;53.35;98513.13;4451652;32;33852;-61
2023/08/05 06:51:27;;;;;;;6.75;3.92;;;;;;;27.61;53.40;98513.13;4452636;32;34055;-63
2023/08/05 06:53:54;;;;;;;7.25;4.05;;;;;;;27.61;53.77;98515.88;4452873;32;33005;-64
2023/08/05 06:56:22;;;;;;;6.15;3.85;;;;;;;27.62;54.05;98513.94;4451435;32;32737;-61
2023/08/05 06:58:50;;;;;;;5.53;3.90;;;;;;;27.62;53.81;98514.75;4452442;32;33919;-61
2023/08/05 07:01:17;;;;;;;5.37;4.03;;;;;;;27.62;53.89;98525.72;4454741;32;33877;-64
2023/08/05 07:03:45;;;;;;;6.03;3.95;;;;;;;27.64;53.89;98517.19;4460145;32;33745;-62
2023/08/05 07:06:13;;;;;;;6.53;4.00;;;;;;;27.63;53.45;98532.00;4461892;32;33446;-64
2023/08/05 07:08:40;;;;;;;5.57;3.97;;;;;;;27.63;53.36;98530.09;4459665;32;33630;-64
2023/08/05 07:11:08;;;;;;;6.10;4.07;;;;;;;27.64;53.50;98528.97;4460200;32;33934;-63
2023/08/05 07:13:36;;;;;;;7.53;4.43;;;;;;;27.65;53.62;98529.78;4459438;32;33687;-62
2023/08/05 07:16:04;;;;;;;4.82;3.53;;;;;;;27.65;53.84;98536.13;4460530;32;32929;-61
2023/08/05 07:18:32;;;;;;;5.70;4.30;;;;;;;27.68;54.01;98541.00;4458679;32;33785;-64
2023/08/05 07:20:59;;;;;;;6.85;4.05;;;;;;;27.69;53.95;98541.81;4470967;32;34724;-81
2023/08/05 07:23:27;;;;;;;6.62;4.43;;;;;;;27.70;53.81;98544.31;4467360;32;33796;-85
2023/08/05 07:25:55;;;;;;;5.75;4.20;;;;;;;27.73;53.80;98533.88;4479494;31;33444;-67
2023/08/05 07:28:22;;;;;;;8.75;4.37;;;;;;;27.71;53.81;98529.53;4476797;31;34780;-79
2023/08/05 07:31:00;;;;;;;6.68;4.65;;;;;;;27.71;54.00;98521.28;4473424;32;34037;-88
2023/08/05 07:33:28;;;;;;;6.65;4.47;;;;;;;27.73;54.08;98518.25;4473311;32;33543;-82
2023/08/05 07:35:56;;;;;;;9.30;4.28;;;;;;;27.73;53.98;98526.47;4475179;32;33529;-89
2023/08/05 07:38:27;;;;;;;6.87;4.40;;;;;;;27.74;53.96;98525.38;4561580;26;34945;-71
2023/08/05 07:40:56;;;;;;;7.20;4.30;;;;;;;27.74;53.94;98528.09;4471849;27;35204;-88
2023/08/05 07:43:24;;;;;;;6.43;4.50;;;;;;;27.75;54.10;98523.47;4437222;32;34099;-81
2023/08/05 07:45:52;;;;;;;6.18;4.95;;;;;;;27.77;54.43;98521.25;4450494;32;34409;-88
2023/08/05 07:51:30;;;;;;;6.93;5.30;;;;;;;27.76;54.45;98512.22;4425637;28;20149;-69
2023/08/05 07:53:59;;;;;;;6.07;4.93;;;;;;;27.77;54.85;98513.84;4286286;33;32319;-67
2023/08/05 07:56:26;;;;;;;8.68;5.32;;;;;;;27.78;54.74;98525.62;4286782;33;34185;-67
2023/08/05 07:58:54;;;;;;;8.15;5.62;;;;;;;27.79;54.75;98527.25;4287540;33;32740;-70
2023/08/05 08:01:22;;;;;;;8.15;6.30;;;;;;;27.78;54.77;98523.69;4287460;33;33928;-67
2023/08/05 08:03:53;;;;;;;6.82;6.05;;;;;;;27.80;54.89;98520.69;4271918;33;33685;-67
2023/08/05 08:06:22;;;;;;;6.82;5.43;;;;;;;27.82;55.36;98513.00;4295612;33;33732;-67
2023/08/05 08:08:49;;;;;;;7.03;5.78;;;;;;;27.84;55.42;98519.00;4276343;33;34386;-68
2023/08/05 08:11:17;;;;;;;8.10;5.70;;;;;;;27.84;55.45;98525.31;4288392;33;34744;-68
2023/08/05 08:13:45;;;;;;;7.28;6.03;;;;;;;27.84;55.50;98527.22;4275229;33;33456;-69
2023/08/05 08:16:15;;;;;;;7.47;5.78;;;;;;;27.85;55.49;98535.16;4274648;33;33314;-67
2023/08/05 08:18:44;;;;;;;9.40;6.12;;;;;;;27.85;55.37;98535.16;4285365;33;33483;-67
2023/08/05 08:21:12;;;;;;;8.45;5.78;;;;;;;27.86;55.24;98541.47;4289108;33;33897;-68
2023/08/05 08:23:39;;;;;;;7.28;5.57;;;;;;;27.86;55.34;98542.28;4288156;33;34545;-67
2023/08/05 08:26:07;;;;;;;8.23;6.25;;;;;;;27.87;55.26;98541.16;4287475;33;32108;-67
2023/08/05 08:28:35;;;;;;;8.75;5.70;;;;;;;27.90;55.37;98548.03;4287484;33;33911;-67
2023/08/05 08:31:02;;;;;;;7.70;5.45;;;;;;;27.88;55.28;98548.28;4289139;33;33994;-67
2023/08/05 08:33:31;;;;;;;6.95;5.68;;;;;;;27.91;55.57;98558.69;4288304;33;34263;-68
2023/08/05 08:35:58;;;;;;;8.07;5.60;;;;;;;27.92;55.40;98567.72;4287485;33;33330;-68
2023/08/05 08:38:26;;;;;;;8.40;6.03;;;;;;;27.92;55.54;98570.47;4288813;33;34301;-68
2023/08/05 09:19:45;;;;;;;10.68;7.15;;;;;;;27.89;55.52;98565.56;4791809;27;20384;-71
2023/08/05 09:22:13;;;;;;;8.00;7.20;;;;;;;27.87;55.39;98560.34;4292700;33;32666;-67
2023/08/05 09:24:41;;;;;;;10.18;8.20;;;;;;;27.89;55.39;98549.12;4304978;33;33963;-68
2023/08/05 09:27:08;;;;;;;10.15;9.02;;;;;;;27.90;55.42;98556.25;4316656;33;33774;-69
2023/08/05 09:29:36;;;;;;;10.07;8.63;;;;;;;27.90;55.58;98551.56;4306901;33;32303;-68
2023/08/05 09:32:05;;;;;;;11.90;9.18;;;;;;;27.92;55.66;98557.56;4318407;33;32649;-70
2023/08/05 09:34:37;;;;;;;10.60;9.25;;;;;;;27.92;55.77;98554.84;4306548;33;33324;-67
2023/08/05 09:37:05;;;;;;;10.77;9.65;;;;;;;27.93;55.86;98553.75;4293178;33;32602;-70
2023/08/05 09:39:47;;;;;;;11.80;8.98;;;;;;;27.95;55.78;98558.94;4304926;33;34806;-70
2023/08/05 09:42:20;;;;;;;13.70;9.73;;;;;;;27.96;55.59;98566.06;4319128;33;34541;-69
2023/08/05 09:44:48;;;;;;;11.60;10.40;;;;;;;27.95;55.74;98556.19;4319102;33;32222;-69
2023/08/05 09:47:18;;;;;;;12.23;10.13;;;;;;;27.96;55.79;98549.59;4319135;33;33280;-71
2023/08/05 09:49:48;;;;;;;11.38;9.68;;;;;;;27.96;55.77;98549.59;4318529;33;33699;-71
2023/08/05 09:52:17;;;;;;;12.45;10.30;;;;;;;27.95;55.75;98539.75;4318231;33;33845;-69
2023/08/05 09:54:50;;;;;;;13.25;10.75;;;;;;;27.95;55.75;98539.75;4317679;33;33989;-68
2023/08/05 09:57:20;;;;;;;12.75;11.15;;;;;;;27.95;55.76;98542.50;4295426;33;33862;-68
2023/08/05 09:59:47;;;;;;;12.82;11.43;;;;;;;27.95;55.79;98543.31;4318768;33;33602;-70
2023/08/05 10:02:18;;;;;;;14.98;12.23;;;;;;;27.95;55.86;98548.78;4305830;33;34225;-68
2023/08/05 10:04:46;;;;;;;15.10;13.62;;;;;;;27.95;55.91;98547.97;4307453;33;33173;-68
2023/08/05 10:07:14;;;;;;;15.05;13.55;;;;;;;27.96;56.01;98560.56;4305205;33;34728;-67
2023/08/05 10:09:42;;;;;;;15.32;13.70;;;;;;;27.98;56.27;98563.84;4318055;33;33396;-69
2023/08/05 10:12:10;;;;;;;17.25;13.85;;;;;;;28.03;56.39;98557.53;4332323;33;33980;-68
2023/08/05 10:14:38;;;;;;;15.27;13.32;;;;;;;28.05;56.39;98563.53;4318232;33;33314;-68
2023/08/05 10:17:06;;;;;;;15.65;14.00;;;;;;;28.05;56.38;98556.09;4318226;33;33902;-68
2023/08/05 10:19:33;;;;;;;18.00;14.27;;;;;;;28.06;56.35;98562.41;4306510;33;34034;-68
2023/08/05 10:22:12;;;;;;;21.33;14.90;;;;;;;28.06;56.48;98560.47;4303283;33;33867;-70
2023/08/05 10:24:58;;;;;;;16.65;14.95;;;;;;;28.06;56.63;98560.47;4285225;33;33474;-68
2023/08/05 10:27:44;;;;;;;17.98;15.05;;;;;;;28.07;56.70;98553.91;4296274;33;33949;-69
2023/08/05 10:30:16;;;;;;;17.60;15.18;;;;;;;28.08;56.85;98544.56;4321439;33;34674;-69
2023/08/05 10:32:49;;;;;;;17.23;15.27;;;;;;;28.08;56.82;98552.81;4309669;33;33553;-68
2023/08/05 10:35:24;;;;;;;17.60;15.10;;;;;;;28.09;56.74;98550.88;4323271;33;34199;-69
2023/08/05 10:38:05;;;;;;;17.73;15.93;;;;;;;28.11;56.66;98554.94;4322422;33;33927;-68
2023/08/05 10:40:40;;;;;;;18.30;16.40;;;;;;;28.11;56.60;98554.94;4314118;33;33896;-70
2023/08/05 10:43:08;;;;;;;20.20;17.87;;;;;;;28.13;56.69;98552.75;4316851;33;34561;-69
2023/08/05 10:45:40;;;;;;;19.65;17.48;;;;;;;28.13;56.96;98552.75;4291908;33;32132;-68
2023/08/05 10:48:13;;;;;;;18.85;16.95;;;;;;;28.15;56.99;98550.53;4303924;33;34743;-70
2023/08/05 10:50:44;;;;;;;19.42;17.52;;;;;;;28.15;56.99;98550.53;4317373;33;33946;-68
2023/08/05 10:53:12;;;;;;;19.35;17.30;;;;;;;28.16;56.86;98552.16;4317360;33;33852;-69
2023/08/05 10:55:50;;;;;;;19.73;17.62;;;;;;;28.16;56.82;98552.16;4292359;33;33622;-71
2023/08/05 10:58:23;;;;;;;19.52;17.62;;;;;;;28.16;56.93;98557.66;4289512;33;34525;-70
2023/08/05 11:01:00;;;;;;;22.50;20.15;;;;;;;28.15;56.96;98549.72;4302628;33;34051;-68
2023/08/05 11:03:50;;;;;;;20.88;18.85;;;;;;;28.17;56.75;98551.06;4310051;33;33631;-68
2023/08/05 11:06:21;;;;;;;21.95;19.58;;;;;;;28.19;56.59;98556.25;4283875;33;33294;-68
2023/08/05 11:08:49;;;;;;;22.83;18.80;;;;;;;28.16;56.61;98543.94;4314313;33;33811;-68
2023/08/05 11:11:18;;;;;;;21.40;19.20;;;;;;;28.16;56.61;98554.91;4289772;33;33503;-68
2023/08/05 11:13:47;;;;;;;22.17;19.73;;;;;;;28.16;56.56;98549.41;4271784;33;32479;-68
2023/08/05 11:16:15;;;;;;;21.05;18.95;;;;;;;28.17;56.47;98540.09;4303398;33;33216;-71
2023/08/05 11:18:56;;;;;;;20.27;18.35;;;;;;;28.17;56.48;98551.06;4290147;33;33172;-68
2023/08/05 11:21:23;;;;;;;20.85;18.45;;;;;;;28.17;56.41;98555.75;4327681;33;34492;-69
2023/08/05 11:23:51;;;;;;;21.45;19.25;;;;;;;28.20;56.33;98560.63;4303413;33;33752;-68
2023/08/05 11:26:22;;;;;;;20.30;18.30;;;;;;;28.18;56.39;98555.44;4317226;33;34126;-68
2023/08/05 11:28:50;;;;;;;19.42;17.52;;;;;;;28.20;56.37;98566.13;4305750;33;33791;-69
2023/08/05 11:31:22;;;;;;;19.25;17.37;;;;;;;28.19;56.36;98568.03;4317117;33;34778;-68
2023/08/05 11:33:50;;;;;;;21.23;19.23;;;;;;;28.19;56.29;98562.56;4317797;33;33888;-68
2023/08/05 11:36:25;;;;;;;21.70;19.63;;;;;;;28.19;56.35;98559.00;4317771;33;33521;-72
2023/08/05 11:38:57;;;;;;;21.15;18.37;;;;;;;28.21;56.40;98568.59;4331285;33;35285;-70
2023/08/05 11:41:27;;;;;;;19.60;17.55;;;;;;;28.22;56.30;98569.41;4330425;33;34760;-69
2023/08/05 11:43:55;;;;;;;18.40;16.20;;;;;;;28.21;56.22;98567.75;4305533;33;33563;-67
2023/08/05 11:46:27;;;;;;;18.15;16.20;;;;;;;28.21;56.33;98575.97;4315113;33;34210;-69
2023/08/05 11:49:07;;;;;;;19.87;16.77;;;;;;;28.22;56.45;98578.47;4328761;33;33868;-69
2023/08/05 11:51:44;;;;;;;17.80;15.80;;;;;;;28.24;56.51;98572.66;4324826;33;33986;-68
2023/08/05 11:54:12;;;;;;;18.37;16.15;;;;;;;28.24;56.49;98569.94;4326371;33;34140;-69
2023/08/05 11:56:40;;;;;;;20.10;15.23;;;;;;;28.23;56.51;98577.34;4327062;33;34050;-71
2023/08/05 11:59:07;;;;;;;17.77;15.98;;;;;;;28.23;56.45;98566.38;4325884;33;33672;-69
2023/08/05 12:01:36;;;;;;;17.70;15.93;;;;;;;28.25;56.32;98566.06;4325776;33;33521;-68
2023/08/05 12:04:08;;;;;;;16.67;14.93;;;;;;;28.26;56.35;98555.91;4315760;33;33720;-68
2023/08/05 12:06:35;;;;;;;16.05;14.18;;;;;;;28.26;56.51;98548.53;4304771;33;33224;-70
2023/08/05 12:09:04;;;;;;;16.48;14.77;;;;;;;28.26;56.57;98550.44;4325590;33;33509;-69
2023/08/05 12:11:44;;;;;;;16.92;15.32;;;;;;;28.24;56.61;98556.22;4318864;33;34852;-70
2023/08/05 12:14:13;;;;;;;16.65;14.90;;;;;;;28.25;56.62;98555.09;4307623;33;33439;-68
2023/08/05 12:16:40;;;;;;;17.08;14.45;;;;;;;28.28;56.88;98545.50;4328757;33;34146;-70
2023/08/05 12:19:08;;;;;;;16.60;14.93;;;;;;;28.26;56.97;98544.94;4308355;33;34450;-68